sensor_id;sensor_type;location;lat;lon;timestamp;P1;durP1;ratioP1;P2;durP2;ratioP2
68870;SDS011;55906;52.278;6.808;2023-06-19T00:00:01;10.45;;;7.50;;
68870;SDS011;55906;52.278;6.808;2023-06-19T00:02:33;9.82;;;8.00;;
68870;SDS011;55906;52.278;6.808;2023-06-19T00:05:00;10.97;;;8.10;;
68870;SDS011;55906;52.278;6.808;2023-06-19T00:07:27;11.05;;;7.75;;
68870;SDS011;55906;52.278;6.808;2023-06-19T00:09:53;10.35;;;7.97;;
68870;SDS011;55906;52.278;6.808;2023-06-19T00:12:20;13.63;;;8.70;;
68870;SDS011;55906;52.278;6.808;2023-06-19T00:14:47;11.02;;;8.65;;
68870;SDS011;55906;52.278;6.808;2023-06-19T00:17:13;10.60;;;7.93;;
68870;SDS011;55906;52.278;6.808;2023-06-19T00:19:43;9.57;;;7.93;;
68870;SDS011;55906;52.278;6.808;2023-06-19T00:22:10;12.25;;;8.30;;
68870;SDS011;55906;52.278;6.808;2023-06-19T00:24:37;10.95;;;8.50;;
68870;SDS011;55906;52.278;6.808;2023-06-19T00:27:04;10.45;;;8.23;;
68870;SDS011;55906;52.278;6.808;2023-06-19T00:29:31;10.63;;;8.13;;
68870;SDS011;55906;52.278;6.808;2023-06-19T00:31:58;10.23;;;8.65;;
68870;SDS011;55906;52.278;6.808;2023-06-19T00:34:25;13.55;;;8.23;;
68870;SDS011;55906;52.278;6.808;2023-06-19T00:36:54;10.68;;;8.07;;
68870;SDS011;55906;52.278;6.808;2023-06-19T00:39:21;11.60;;;8.02;;
68870;SDS011;55906;52.278;6.808;2023-06-19T00:41:49;9.33;;;7.30;;
68870;SDS011;55906;52.278;6.808;2023-06-19T00:44:17;9.65;;;7.82;;
68870;SDS011;55906;52.278;6.808;2023-06-19T00:46:43;8.90;;;7.05;;
68870;SDS011;55906;52.278;6.808;2023-06-19T00:49:11;10.13;;;7.47;;
68870;SDS011;55906;52.278;6.808;2023-06-19T00:51:38;10.45;;;7.60;;
68870;SDS011;55906;52.278;6.808;2023-06-19T00:54:06;8.87;;;6.43;;
68870;SDS011;55906;52.278;6.808;2023-06-19T00:56:33;9.00;;;6.57;;
68870;SDS011;55906;52.278;6.808;2023-06-19T00:59:05;10.70;;;7.60;;
68870;SDS011;55906;52.278;6.808;2023-06-19T01:01:33;8.98;;;6.80;;
68870;SDS011;55906;52.278;6.808;2023-06-19T01:04:00;8.80;;;7.40;;
68870;SDS011;55906;52.278;6.808;2023-06-19T01:06:27;9.03;;;6.90;;
68870;SDS011;55906;52.278;6.808;2023-06-19T01:09:04;10.20;;;7.55;;
68870;SDS011;55906;52.278;6.808;2023-06-19T01:11:35;10.52;;;8.32;;
68870;SDS011;55906;52.278;6.808;2023-06-19T01:14:08;10.80;;;7.88;;
68870;SDS011;55906;52.278;6.808;2023-06-19T01:16:39;11.25;;;8.07;;
68870;SDS011;55906;52.278;6.808;2023-06-19T01:19:07;10.97;;;7.77;;
68870;SDS011;55906;52.278;6.808;2023-06-19T01:21:36;10.23;;;7.88;;
68870;SDS011;55906;52.278;6.808;2023-06-19T01:24:05;14.20;;;8.40;;
68870;SDS011;55906;52.278;6.808;2023-06-19T01:26:32;12.18;;;8.10;;
68870;SDS011;55906;52.278;6.808;2023-06-19T01:28:59;11.15;;;7.85;;
68870;SDS011;55906;52.278;6.808;2023-06-19T01:31:27;12.33;;;7.90;;
68870;SDS011;55906;52.278;6.808;2023-06-19T01:34:00;11.48;;;8.05;;
68870;SDS011;55906;52.278;6.808;2023-06-19T01:36:27;10.05;;;8.40;;
68870;SDS011;55906;52.278;6.808;2023-06-19T01:38:55;10.15;;;7.40;;
68870;SDS011;55906;52.278;6.808;2023-06-19T01:41:25;9.32;;;7.22;;
68870;SDS011;55906;52.278;6.808;2023-06-19T01:43:52;9.40;;;7.17;;
68870;SDS011;55906;52.278;6.808;2023-06-19T01:46:19;11.65;;;7.82;;
68870;SDS011;55906;52.278;6.808;2023-06-19T01:48:46;12.48;;;7.43;;
68870;SDS011;55906;52.278;6.808;2023-06-19T01:51:13;11.05;;;7.53;;
68870;SDS011;55906;52.278;6.808;2023-06-19T01:53:39;9.25;;;7.28;;
68870;SDS011;55906;52.278;6.808;2023-06-19T01:56:06;9.07;;;7.13;;
68870;SDS011;55906;52.278;6.808;2023-06-19T01:58:34;11.52;;;6.72;;
68870;SDS011;55906;52.278;6.808;2023-06-19T02:01:01;8.77;;;6.57;;
68870;SDS011;55906;52.278;6.808;2023-06-19T02:03:28;9.38;;;7.03;;
68870;SDS011;55906;52.278;6.808;2023-06-19T02:05:54;10.70;;;7.43;;
68870;SDS011;55906;52.278;6.808;2023-06-19T02:08:21;8.90;;;6.73;;
68870;SDS011;55906;52.278;6.808;2023-06-19T02:10:48;9.63;;;6.55;;
68870;SDS011;55906;52.278;6.808;2023-06-19T02:13:14;10.20;;;6.75;;
68870;SDS011;55906;52.278;6.808;2023-06-19T02:15:42;11.27;;;7.30;;
68870;SDS011;55906;52.278;6.808;2023-06-19T02:18:09;8.13;;;6.22;;
68870;SDS011;55906;52.278;6.808;2023-06-19T02:20:36;8.90;;;6.33;;
68870;SDS011;55906;52.278;6.808;2023-06-19T02:23:02;8.75;;;6.25;;
68870;SDS011;55906;52.278;6.808;2023-06-19T02:25:29;9.82;;;6.60;;
68870;SDS011;55906;52.278;6.808;2023-06-19T02:27:56;10.13;;;6.90;;
68870;SDS011;55906;52.278;6.808;2023-06-19T02:30:22;8.63;;;6.60;;
68870;SDS011;55906;52.278;6.808;2023-06-19T02:32:50;9.00;;;6.43;;
68870;SDS011;55906;52.278;6.808;2023-06-19T02:35:17;9.52;;;6.75;;
68870;SDS011;55906;52.278;6.808;2023-06-19T02:37:44;9.68;;;6.70;;
68870;SDS011;55906;52.278;6.808;2023-06-19T02:40:11;9.93;;;6.32;;
68870;SDS011;55906;52.278;6.808;2023-06-19T02:42:39;9.70;;;6.85;;
68870;SDS011;55906;52.278;6.808;2023-06-19T02:45:06;13.00;;;6.60;;
68870;SDS011;55906;52.278;6.808;2023-06-19T02:47:33;9.77;;;6.47;;
68870;SDS011;55906;52.278;6.808;2023-06-19T02:50:02;10.43;;;6.40;;
68870;SDS011;55906;52.278;6.808;2023-06-19T02:52:30;11.38;;;6.65;;
68870;SDS011;55906;52.278;6.808;2023-06-19T02:54:56;9.10;;;6.53;;
68870;SDS011;55906;52.278;6.808;2023-06-19T02:57:24;10.50;;;6.43;;
68870;SDS011;55906;52.278;6.808;2023-06-19T02:59:50;8.82;;;6.15;;
68870;SDS011;55906;52.278;6.808;2023-06-19T03:02:17;8.73;;;6.28;;
68870;SDS011;55906;52.278;6.808;2023-06-19T03:04:44;9.75;;;6.20;;
68870;SDS011;55906;52.278;6.808;2023-06-19T03:07:12;8.32;;;6.10;;
68870;SDS011;55906;52.278;6.808;2023-06-19T03:09:39;8.10;;;6.40;;
68870;SDS011;55906;52.278;6.808;2023-06-19T03:12:07;10.45;;;6.38;;
68870;SDS011;55906;52.278;6.808;2023-06-19T03:14:34;9.90;;;6.25;;
68870;SDS011;55906;52.278;6.808;2023-06-19T03:17:01;8.50;;;6.10;;
68870;SDS011;55906;52.278;6.808;2023-06-19T03:19:28;9.38;;;5.85;;
68870;SDS011;55906;52.278;6.808;2023-06-19T03:21:54;10.73;;;6.50;;
68870;SDS011;55906;52.278;6.808;2023-06-19T03:24:22;9.30;;;6.28;;
68870;SDS011;55906;52.278;6.808;2023-06-19T03:26:51;11.30;;;6.78;;
68870;SDS011;55906;52.278;6.808;2023-06-19T03:29:17;9.88;;;6.10;;
68870;SDS011;55906;52.278;6.808;2023-06-19T03:31:44;9.45;;;6.65;;
68870;SDS011;55906;52.278;6.808;2023-06-19T03:34:11;8.60;;;6.00;;
68870;SDS011;55906;52.278;6.808;2023-06-19T03:36:38;8.85;;;5.95;;
68870;SDS011;55906;52.278;6.808;2023-06-19T03:39:04;8.60;;;6.13;;
68870;SDS011;55906;52.278;6.808;2023-06-19T03:41:32;12.18;;;6.35;;
68870;SDS011;55906;52.278;6.808;2023-06-19T03:43:59;8.88;;;6.57;;
68870;SDS011;55906;52.278;6.808;2023-06-19T03:46:26;9.27;;;6.70;;
68870;SDS011;55906;52.278;6.808;2023-06-19T03:48:52;8.68;;;6.53;;
68870;SDS011;55906;52.278;6.808;2023-06-19T03:51:19;8.95;;;6.50;;
68870;SDS011;55906;52.278;6.808;2023-06-19T03:53:46;10.18;;;6.70;;
68870;SDS011;55906;52.278;6.808;2023-06-19T03:56:13;8.15;;;5.93;;
68870;SDS011;55906;52.278;6.808;2023-06-19T03:58:41;8.97;;;6.30;;
68870;SDS011;55906;52.278;6.808;2023-06-19T04:01:07;9.10;;;6.30;;
68870;SDS011;55906;52.278;6.808;2023-06-19T04:03:34;8.88;;;7.03;;
68870;SDS011;55906;52.278;6.808;2023-06-19T04:06:01;9.63;;;6.78;;
68870;SDS011;55906;52.278;6.808;2023-06-19T04:08:27;9.57;;;6.20;;
68870;SDS011;55906;52.278;6.808;2023-06-19T04:10:54;8.93;;;6.30;;
68870;SDS011;55906;52.278;6.808;2023-06-19T04:13:20;9.40;;;6.40;;
68870;SDS011;55906;52.278;6.808;2023-06-19T04:15:48;8.68;;;6.97;;
68870;SDS011;55906;52.278;6.808;2023-06-19T04:18:15;9.13;;;6.25;;
68870;SDS011;55906;52.278;6.808;2023-06-19T04:20:42;9.68;;;6.65;;
68870;SDS011;55906;52.278;6.808;2023-06-19T04:23:08;10.00;;;6.93;;
68870;SDS011;55906;52.278;6.808;2023-06-19T04:25:35;8.40;;;6.30;;
68870;SDS011;55906;52.278;6.808;2023-06-19T04:28:02;11.07;;;6.38;;
68870;SDS011;55906;52.278;6.808;2023-06-19T04:30:29;10.18;;;6.22;;
68870;SDS011;55906;52.278;6.808;2023-06-19T04:32:58;13.18;;;6.82;;
68870;SDS011;55906;52.278;6.808;2023-06-19T04:35:25;12.23;;;6.53;;
68870;SDS011;55906;52.278;6.808;2023-06-19T04:37:52;9.15;;;6.18;;
68870;SDS011;55906;52.278;6.808;2023-06-19T04:40:19;8.25;;;5.68;;
68870;SDS011;55906;52.278;6.808;2023-06-19T04:42:46;9.40;;;6.07;;
68870;SDS011;55906;52.278;6.808;2023-06-19T04:45:13;10.95;;;6.20;;
68870;SDS011;55906;52.278;6.808;2023-06-19T04:47:40;9.73;;;5.63;;
68870;SDS011;55906;52.278;6.808;2023-06-19T04:50:10;8.48;;;5.60;;
68870;SDS011;55906;52.278;6.808;2023-06-19T04:52:37;8.77;;;5.40;;
68870;SDS011;55906;52.278;6.808;2023-06-19T04:55:04;8.75;;;5.13;;
68870;SDS011;55906;52.278;6.808;2023-06-19T04:57:34;11.05;;;5.35;;
68870;SDS011;55906;52.278;6.808;2023-06-19T05:00:01;8.17;;;5.13;;
68870;SDS011;55906;52.278;6.808;2023-06-19T05:02:30;9.90;;;5.30;;
68870;SDS011;55906;52.278;6.808;2023-06-19T05:04:57;7.40;;;5.40;;
68870;SDS011;55906;52.278;6.808;2023-06-19T05:07:28;8.55;;;4.93;;
68870;SDS011;55906;52.278;6.808;2023-06-19T05:09:55;7.57;;;5.30;;
68870;SDS011;55906;52.278;6.808;2023-06-19T05:12:22;10.90;;;5.23;;
68870;SDS011;55906;52.278;6.808;2023-06-19T05:14:49;8.32;;;5.15;;
68870;SDS011;55906;52.278;6.808;2023-06-19T05:17:15;8.18;;;4.80;;
68870;SDS011;55906;52.278;6.808;2023-06-19T05:19:42;7.28;;;4.75;;
68870;SDS011;55906;52.278;6.808;2023-06-19T05:22:09;8.05;;;4.95;;
68870;SDS011;55906;52.278;6.808;2023-06-19T05:24:37;6.50;;;4.67;;
68870;SDS011;55906;52.278;6.808;2023-06-19T05:27:03;7.18;;;4.65;;
68870;SDS011;55906;52.278;6.808;2023-06-19T05:29:31;6.80;;;4.88;;
68870;SDS011;55906;52.278;6.808;2023-06-19T05:31:58;7.25;;;4.85;;
68870;SDS011;55906;52.278;6.808;2023-06-19T05:34:24;8.55;;;5.30;;
68870;SDS011;55906;52.278;6.808;2023-06-19T05:36:51;6.50;;;4.77;;
68870;SDS011;55906;52.278;6.808;2023-06-19T05:39:18;7.10;;;4.40;;
68870;SDS011;55906;52.278;6.808;2023-06-19T05:41:46;8.75;;;5.13;;
68870;SDS011;55906;52.278;6.808;2023-06-19T05:44:12;6.22;;;4.28;;
68870;SDS011;55906;52.278;6.808;2023-06-19T05:46:41;7.28;;;4.80;;
68870;SDS011;55906;52.278;6.808;2023-06-19T05:49:07;7.67;;;4.77;;
68870;SDS011;55906;52.278;6.808;2023-06-19T05:51:34;7.50;;;4.85;;
68870;SDS011;55906;52.278;6.808;2023-06-19T05:54:00;8.43;;;4.70;;
68870;SDS011;55906;52.278;6.808;2023-06-19T05:56:28;6.65;;;4.80;;
68870;SDS011;55906;52.278;6.808;2023-06-19T05:58:56;7.50;;;4.65;;
68870;SDS011;55906;52.278;6.808;2023-06-19T06:01:23;8.17;;;4.77;;
68870;SDS011;55906;52.278;6.808;2023-06-19T06:03:53;6.93;;;4.57;;
68870;SDS011;55906;52.278;6.808;2023-06-19T06:06:20;8.00;;;5.35;;
68870;SDS011;55906;52.278;6.808;2023-06-19T06:08:46;7.22;;;4.90;;
68870;SDS011;55906;52.278;6.808;2023-06-19T06:11:13;9.00;;;5.13;;
68870;SDS011;55906;52.278;6.808;2023-06-19T06:13:40;7.20;;;4.80;;
68870;SDS011;55906;52.278;6.808;2023-06-19T06:16:08;7.22;;;5.20;;
68870;SDS011;55906;52.278;6.808;2023-06-19T06:18:35;9.43;;;5.40;;
68870;SDS011;55906;52.278;6.808;2023-06-19T06:21:01;9.15;;;5.05;;
68870;SDS011;55906;52.278;6.808;2023-06-19T06:23:29;8.45;;;4.28;;
68870;SDS011;55906;52.278;6.808;2023-06-19T06:25:56;8.30;;;5.10;;
68870;SDS011;55906;52.278;6.808;2023-06-19T06:28:27;7.85;;;5.07;;
68870;SDS011;55906;52.278;6.808;2023-06-19T06:30:53;7.47;;;5.05;;
68870;SDS011;55906;52.278;6.808;2023-06-19T06:33:22;10.18;;;5.45;;
68870;SDS011;55906;52.278;6.808;2023-06-19T06:35:48;8.38;;;5.15;;
68870;SDS011;55906;52.278;6.808;2023-06-19T06:38:15;7.83;;;5.17;;
68870;SDS011;55906;52.278;6.808;2023-06-19T06:40:42;9.43;;;5.03;;
68870;SDS011;55906;52.278;6.808;2023-06-19T06:43:08;9.77;;;5.25;;
68870;SDS011;55906;52.278;6.808;2023-06-19T06:45:35;8.23;;;5.20;;
68870;SDS011;55906;52.278;6.808;2023-06-19T06:48:03;11.15;;;5.60;;
68870;SDS011;55906;52.278;6.808;2023-06-19T06:50:31;8.13;;;5.33;;
68870;SDS011;55906;52.278;6.808;2023-06-19T06:52:58;10.07;;;5.68;;
68870;SDS011;55906;52.278;6.808;2023-06-19T06:55:24;10.02;;;5.40;;
68870;SDS011;55906;52.278;6.808;2023-06-19T06:57:51;9.40;;;6.07;;
68870;SDS011;55906;52.278;6.808;2023-06-19T07:00:18;9.75;;;5.78;;
68870;SDS011;55906;52.278;6.808;2023-06-19T07:02:45;8.50;;;5.60;;
68870;SDS011;55906;52.278;6.808;2023-06-19T07:05:13;7.00;;;5.03;;
68870;SDS011;55906;52.278;6.808;2023-06-19T07:07:41;8.50;;;5.72;;
68870;SDS011;55906;52.278;6.808;2023-06-19T07:10:08;7.35;;;5.18;;
68870;SDS011;55906;52.278;6.808;2023-06-19T07:12:35;9.63;;;6.07;;
68870;SDS011;55906;52.278;6.808;2023-06-19T07:15:10;7.63;;;5.50;;
68870;SDS011;55906;52.278;6.808;2023-06-19T07:17:37;9.68;;;6.05;;
68870;SDS011;55906;52.278;6.808;2023-06-19T07:20:04;9.65;;;6.13;;
68870;SDS011;55906;52.278;6.808;2023-06-19T07:22:31;9.05;;;6.00;;
68870;SDS011;55906;52.278;6.808;2023-06-19T07:25:00;7.90;;;5.45;;
68870;SDS011;55906;52.278;6.808;2023-06-19T07:27:28;9.00;;;5.50;;
68870;SDS011;55906;52.278;6.808;2023-06-19T07:29:55;7.97;;;5.68;;
68870;SDS011;55906;52.278;6.808;2023-06-19T07:32:22;7.22;;;5.32;;
68870;SDS011;55906;52.278;6.808;2023-06-19T07:34:49;10.32;;;5.70;;
68870;SDS011;55906;52.278;6.808;2023-06-19T07:37:15;10.75;;;6.05;;
68870;SDS011;55906;52.278;6.808;2023-06-19T07:39:43;11.10;;;6.00;;
68870;SDS011;55906;52.278;6.808;2023-06-19T07:42:12;8.63;;;5.72;;
68870;SDS011;55906;52.278;6.808;2023-06-19T07:44:39;10.60;;;6.53;;
68870;SDS011;55906;52.278;6.808;2023-06-19T07:47:06;11.70;;;6.63;;
68870;SDS011;55906;52.278;6.808;2023-06-19T07:49:33;8.98;;;6.30;;
68870;SDS011;55906;52.278;6.808;2023-06-19T07:52:00;10.33;;;6.50;;
68870;SDS011;55906;52.278;6.808;2023-06-19T07:54:27;10.05;;;6.55;;
68870;SDS011;55906;52.278;6.808;2023-06-19T07:56:53;10.05;;;6.82;;
68870;SDS011;55906;52.278;6.808;2023-06-19T07:59:22;10.00;;;6.40;;
68870;SDS011;55906;52.278;6.808;2023-06-19T08:01:49;10.55;;;6.78;;
68870;SDS011;55906;52.278;6.808;2023-06-19T08:04:15;9.13;;;6.50;;
68870;SDS011;55906;52.278;6.808;2023-06-19T08:06:42;9.52;;;6.53;;
68870;SDS011;55906;52.278;6.808;2023-06-19T08:09:09;8.75;;;6.70;;
68870;SDS011;55906;52.278;6.808;2023-06-19T08:11:35;12.40;;;7.03;;
68870;SDS011;55906;52.278;6.808;2023-06-19T08:14:02;10.15;;;7.03;;
68870;SDS011;55906;52.278;6.808;2023-06-19T08:16:30;10.50;;;7.17;;
68870;SDS011;55906;52.278;6.808;2023-06-19T08:18:57;10.35;;;6.75;;
68870;SDS011;55906;52.278;6.808;2023-06-19T08:21:23;10.63;;;7.35;;
68870;SDS011;55906;52.278;6.808;2023-06-19T08:23:50;8.20;;;6.88;;
68870;SDS011;55906;52.278;6.808;2023-06-19T08:26:17;8.95;;;6.57;;
68870;SDS011;55906;52.278;6.808;2023-06-19T08:28:44;10.30;;;7.40;;
68870;SDS011;55906;52.278;6.808;2023-06-19T08:31:10;10.82;;;6.93;;
68870;SDS011;55906;52.278;6.808;2023-06-19T08:33:39;8.60;;;6.40;;
68870;SDS011;55906;52.278;6.808;2023-06-19T08:36:05;11.00;;;7.38;;
68870;SDS011;55906;52.278;6.808;2023-06-19T08:38:32;9.98;;;6.35;;
68870;SDS011;55906;52.278;6.808;2023-06-19T08:40:59;9.57;;;7.17;;
68870;SDS011;55906;52.278;6.808;2023-06-19T08:43:26;9.05;;;7.03;;
68870;SDS011;55906;52.278;6.808;2023-06-19T08:45:55;10.77;;;7.15;;
68870;SDS011;55906;52.278;6.808;2023-06-19T08:48:31;9.60;;;6.75;;
68870;SDS011;55906;52.278;6.808;2023-06-19T08:51:02;9.93;;;6.95;;
68870;SDS011;55906;52.278;6.808;2023-06-19T08:53:32;11.97;;;6.70;;
68870;SDS011;55906;52.278;6.808;2023-06-19T08:56:00;9.13;;;6.63;;
68870;SDS011;55906;52.278;6.808;2023-06-19T08:58:27;9.32;;;7.50;;
68870;SDS011;55906;52.278;6.808;2023-06-19T09:00:54;9.27;;;6.95;;
68870;SDS011;55906;52.278;6.808;2023-06-19T09:03:21;11.13;;;7.38;;
68870;SDS011;55906;52.278;6.808;2023-06-19T09:05:48;11.57;;;6.90;;
68870;SDS011;55906;52.278;6.808;2023-06-19T09:08:17;7.97;;;6.78;;
68870;SDS011;55906;52.278;6.808;2023-06-19T09:10:53;14.13;;;6.63;;
68870;SDS011;55906;52.278;6.808;2023-06-19T09:13:21;9.10;;;6.50;;
68870;SDS011;55906;52.278;6.808;2023-06-19T09:15:56;8.38;;;6.15;;
68870;SDS011;55906;52.278;6.808;2023-06-19T09:18:24;10.43;;;6.50;;
68870;SDS011;55906;52.278;6.808;2023-06-19T09:20:52;10.10;;;6.30;;
68870;SDS011;55906;52.278;6.808;2023-06-19T09:23:21;9.18;;;6.22;;
68870;SDS011;55906;52.278;6.808;2023-06-19T09:25:48;9.07;;;6.90;;
68870;SDS011;55906;52.278;6.808;2023-06-19T09:28:17;10.32;;;7.47;;
68870;SDS011;55906;52.278;6.808;2023-06-19T09:30:51;10.87;;;7.03;;
68870;SDS011;55906;52.278;6.808;2023-06-19T09:33:18;13.20;;;7.88;;
68870;SDS011;55906;52.278;6.808;2023-06-19T09:35:45;9.40;;;6.65;;
68870;SDS011;55906;52.278;6.808;2023-06-19T09:38:14;14.70;;;9.25;;
68870;SDS011;55906;52.278;6.808;2023-06-19T09:40:43;10.63;;;8.93;;
68870;SDS011;55906;52.278;6.808;2023-06-19T09:43:11;10.40;;;8.20;;
68870;SDS011;55906;52.278;6.808;2023-06-19T09:45:45;17.40;;;8.52;;
68870;SDS011;55906;52.278;6.808;2023-06-19T09:48:14;9.43;;;7.65;;
68870;SDS011;55906;52.278;6.808;2023-06-19T09:50:43;8.77;;;7.15;;
68870;SDS011;55906;52.278;6.808;2023-06-19T09:53:12;10.48;;;8.20;;
68870;SDS011;55906;52.278;6.808;2023-06-19T09:55:38;9.87;;;6.57;;
68870;SDS011;55906;52.278;6.808;2023-06-19T09:58:08;11.63;;;7.25;;
68870;SDS011;55906;52.278;6.808;2023-06-19T10:00:35;9.80;;;7.80;;
68870;SDS011;55906;52.278;6.808;2023-06-19T10:03:03;11.30;;;7.20;;
68870;SDS011;55906;52.278;6.808;2023-06-19T10:05:32;10.40;;;7.50;;
68870;SDS011;55906;52.278;6.808;2023-06-19T10:08:03;11.10;;;8.20;;
68870;SDS011;55906;52.278;6.808;2023-06-19T10:10:30;11.55;;;7.82;;
68870;SDS011;55906;52.278;6.808;2023-06-19T10:12:58;9.70;;;7.45;;
68870;SDS011;55906;52.278;6.808;2023-06-19T10:15:28;8.90;;;6.50;;
68870;SDS011;55906;52.278;6.808;2023-06-19T10:17:59;9.63;;;6.45;;
68870;SDS011;55906;52.278;6.808;2023-06-19T10:20:28;10.83;;;6.83;;
68870;SDS011;55906;52.278;6.808;2023-06-19T10:23:01;11.80;;;7.30;;
68870;SDS011;55906;52.278;6.808;2023-06-19T10:25:31;15.77;;;8.02;;
68870;SDS011;55906;52.278;6.808;2023-06-19T10:27:59;10.90;;;7.80;;
68870;SDS011;55906;52.278;6.808;2023-06-19T10:30:28;11.73;;;7.82;;
68870;SDS011;55906;52.278;6.808;2023-06-19T10:32:55;10.20;;;7.47;;
68870;SDS011;55906;52.278;6.808;2023-06-19T10:35:22;8.45;;;6.82;;
68870;SDS011;55906;52.278;6.808;2023-06-19T10:37:49;9.80;;;6.90;;
68870;SDS011;55906;52.278;6.808;2023-06-19T10:40:17;9.90;;;7.53;;
68870;SDS011;55906;52.278;6.808;2023-06-19T10:42:44;11.23;;;8.40;;
68870;SDS011;55906;52.278;6.808;2023-06-19T10:45:11;11.10;;;7.20;;
68870;SDS011;55906;52.278;6.808;2023-06-19T10:47:42;11.95;;;8.88;;
68870;SDS011;55906;52.278;6.808;2023-06-19T10:50:10;13.35;;;8.45;;
68870;SDS011;55906;52.278;6.808;2023-06-19T10:52:41;10.02;;;8.05;;
68870;SDS011;55906;52.278;6.808;2023-06-19T10:55:09;10.93;;;8.77;;
68870;SDS011;55906;52.278;6.808;2023-06-19T10:57:37;12.23;;;7.50;;
68870;SDS011;55906;52.278;6.808;2023-06-19T11:00:04;10.65;;;7.70;;
68870;SDS011;55906;52.278;6.808;2023-06-19T11:02:37;11.90;;;7.57;;
68870;SDS011;55906;52.278;6.808;2023-06-19T11:05:07;8.30;;;6.70;;
68870;SDS011;55906;52.278;6.808;2023-06-19T11:07:34;10.88;;;7.07;;
68870;SDS011;55906;52.278;6.808;2023-06-19T11:10:01;8.63;;;7.13;;
68870;SDS011;55906;52.278;6.808;2023-06-19T11:12:31;8.73;;;6.80;;
68870;SDS011;55906;52.278;6.808;2023-06-19T11:14:58;10.55;;;8.15;;
68870;SDS011;55906;52.278;6.808;2023-06-19T11:17:25;9.20;;;7.43;;
68870;SDS011;55906;52.278;6.808;2023-06-19T11:19:52;12.27;;;8.18;;
68870;SDS011;55906;52.278;6.808;2023-06-19T11:22:20;10.30;;;7.57;;
68870;SDS011;55906;52.278;6.808;2023-06-19T11:24:47;11.20;;;7.25;;
68870;SDS011;55906;52.278;6.808;2023-06-19T11:27:19;8.93;;;6.95;;
68870;SDS011;55906;52.278;6.808;2023-06-19T11:29:54;9.73;;;6.05;;
68870;SDS011;55906;52.278;6.808;2023-06-19T11:32:21;8.38;;;6.60;;
68870;SDS011;55906;52.278;6.808;2023-06-19T11:34:50;10.60;;;6.70;;
68870;SDS011;55906;52.278;6.808;2023-06-19T11:37:20;8.75;;;6.35;;
68870;SDS011;55906;52.278;6.808;2023-06-19T11:39:48;9.73;;;6.68;;
68870;SDS011;55906;52.278;6.808;2023-06-19T11:42:17;11.02;;;7.85;;
68870;SDS011;55906;52.278;6.808;2023-06-19T11:47:31;9.40;;;6.60;;
68870;SDS011;55906;52.278;6.808;2023-06-19T11:49:58;10.15;;;6.45;;
68870;SDS011;55906;52.278;6.808;2023-06-19T11:52:28;8.40;;;6.60;;
68870;SDS011;55906;52.278;6.808;2023-06-19T11:54:55;9.05;;;7.03;;
68870;SDS011;55906;52.278;6.808;2023-06-19T11:57:22;11.25;;;6.78;;
68870;SDS011;55906;52.278;6.808;2023-06-19T11:59:49;9.37;;;6.00;;
68870;SDS011;55906;52.278;6.808;2023-06-19T12:02:15;10.38;;;6.88;;
68870;SDS011;55906;52.278;6.808;2023-06-19T12:04:46;9.35;;;6.50;;
68870;SDS011;55906;52.278;6.808;2023-06-19T12:07:13;8.93;;;6.28;;
68870;SDS011;55906;52.278;6.808;2023-06-19T12:09:42;11.20;;;6.57;;
68870;SDS011;55906;52.278;6.808;2023-06-19T12:12:12;9.63;;;5.90;;
68870;SDS011;55906;52.278;6.808;2023-06-19T12:14:38;8.40;;;6.00;;
68870;SDS011;55906;52.278;6.808;2023-06-19T12:17:05;13.45;;;6.07;;
68870;SDS011;55906;52.278;6.808;2023-06-19T12:19:34;8.80;;;6.18;;
68870;SDS011;55906;52.278;6.808;2023-06-19T12:22:01;9.50;;;5.68;;
68870;SDS011;55906;52.278;6.808;2023-06-19T12:24:29;9.07;;;6.17;;
68870;SDS011;55906;52.278;6.808;2023-06-19T12:26:59;7.20;;;5.40;;
68870;SDS011;55906;52.278;6.808;2023-06-19T12:29:26;7.65;;;5.50;;
68870;SDS011;55906;52.278;6.808;2023-06-19T12:31:58;8.55;;;5.75;;
68870;SDS011;55906;52.278;6.808;2023-06-19T12:34:26;10.05;;;6.00;;
68870;SDS011;55906;52.278;6.808;2023-06-19T12:36:53;9.03;;;5.93;;
68870;SDS011;55906;52.278;6.808;2023-06-19T12:39:22;9.27;;;5.70;;
68870;SDS011;55906;52.278;6.808;2023-06-19T12:41:49;8.13;;;5.72;;
68870;SDS011;55906;52.278;6.808;2023-06-19T12:44:18;8.90;;;7.07;;
68870;SDS011;55906;52.278;6.808;2023-06-19T12:46:44;10.25;;;6.70;;
68870;SDS011;55906;52.278;6.808;2023-06-19T12:49:11;7.90;;;5.30;;
68870;SDS011;55906;52.278;6.808;2023-06-19T12:51:38;8.55;;;6.85;;
68870;SDS011;55906;52.278;6.808;2023-06-19T12:54:16;7.60;;;5.68;;
68870;SDS011;55906;52.278;6.808;2023-06-19T12:56:42;11.13;;;6.03;;
68870;SDS011;55906;52.278;6.808;2023-06-19T12:59:09;8.77;;;5.93;;
68870;SDS011;55906;52.278;6.808;2023-06-19T13:01:37;8.70;;;6.47;;
68870;SDS011;55906;52.278;6.808;2023-06-19T13:04:05;7.63;;;5.07;;
68870;SDS011;55906;52.278;6.808;2023-06-19T13:06:31;9.02;;;6.07;;
68870;SDS011;55906;52.278;6.808;2023-06-19T13:09:00;7.95;;;5.57;;
68870;SDS011;55906;52.278;6.808;2023-06-19T13:11:27;10.20;;;6.30;;
68870;SDS011;55906;52.278;6.808;2023-06-19T13:13:54;8.00;;;6.10;;
68870;SDS011;55906;52.278;6.808;2023-06-19T13:16:20;7.15;;;5.05;;
68870;SDS011;55906;52.278;6.808;2023-06-19T13:18:50;8.30;;;6.00;;
68870;SDS011;55906;52.278;6.808;2023-06-19T13:21:17;8.93;;;6.07;;
68870;SDS011;55906;52.278;6.808;2023-06-19T13:23:44;7.35;;;5.88;;
68870;SDS011;55906;52.278;6.808;2023-06-19T13:26:11;8.57;;;5.63;;
68870;SDS011;55906;52.278;6.808;2023-06-19T13:28:37;8.00;;;5.72;;
68870;SDS011;55906;52.278;6.808;2023-06-19T13:31:04;7.72;;;5.35;;
68870;SDS011;55906;52.278;6.808;2023-06-19T13:33:31;8.10;;;4.97;;
68870;SDS011;55906;52.278;6.808;2023-06-19T13:35:59;7.30;;;4.82;;
68870;SDS011;55906;52.278;6.808;2023-06-19T13:38:25;7.30;;;4.60;;
68870;SDS011;55906;52.278;6.808;2023-06-19T13:40:52;8.75;;;4.90;;
68870;SDS011;55906;52.278;6.808;2023-06-19T13:43:19;7.40;;;4.80;;
68870;SDS011;55906;52.278;6.808;2023-06-19T13:45:48;8.90;;;5.30;;
68870;SDS011;55906;52.278;6.808;2023-06-19T13:48:19;8.07;;;5.22;;
68870;SDS011;55906;52.278;6.808;2023-06-19T13:50:46;6.90;;;4.60;;
68870;SDS011;55906;52.278;6.808;2023-06-19T13:53:17;8.38;;;5.13;;
68870;SDS011;55906;52.278;6.808;2023-06-19T13:55:44;9.25;;;5.55;;
68870;SDS011;55906;52.278;6.808;2023-06-19T13:58:12;10.25;;;6.07;;
68870;SDS011;55906;52.278;6.808;2023-06-19T14:00:38;7.20;;;4.85;;
68870;SDS011;55906;52.278;6.808;2023-06-19T14:03:05;7.97;;;4.67;;
68870;SDS011;55906;52.278;6.808;2023-06-19T14:05:32;5.65;;;3.70;;
68870;SDS011;55906;52.278;6.808;2023-06-19T14:07:59;7.13;;;4.15;;
68870;SDS011;55906;52.278;6.808;2023-06-19T14:10:27;5.75;;;4.38;;
68870;SDS011;55906;52.278;6.808;2023-06-19T14:12:54;7.65;;;4.90;;
68870;SDS011;55906;52.278;6.808;2023-06-19T14:15:20;9.07;;;4.80;;
68870;SDS011;55906;52.278;6.808;2023-06-19T14:17:47;6.90;;;4.38;;
68870;SDS011;55906;52.278;6.808;2023-06-19T14:20:14;7.22;;;4.70;;
68870;SDS011;55906;52.278;6.808;2023-06-19T14:22:41;8.57;;;4.22;;
68870;SDS011;55906;52.278;6.808;2023-06-19T14:25:08;8.00;;;4.82;;
68870;SDS011;55906;52.278;6.808;2023-06-19T14:27:36;6.70;;;4.20;;
68870;SDS011;55906;52.278;6.808;2023-06-19T14:30:03;5.03;;;3.40;;
68870;SDS011;55906;52.278;6.808;2023-06-19T14:32:33;5.68;;;3.60;;
68870;SDS011;55906;52.278;6.808;2023-06-19T14:35:01;5.53;;;3.53;;
68870;SDS011;55906;52.278;6.808;2023-06-19T14:37:27;6.47;;;3.90;;
68870;SDS011;55906;52.278;6.808;2023-06-19T14:39:54;5.70;;;3.47;;
68870;SDS011;55906;52.278;6.808;2023-06-19T14:42:21;5.40;;;3.70;;
68870;SDS011;55906;52.278;6.808;2023-06-19T14:44:49;6.30;;;3.78;;
68870;SDS011;55906;52.278;6.808;2023-06-19T14:47:16;7.97;;;5.22;;